sensor_id;sensor_type;location;lat;lon;timestamp;pressure;altitude;pressure_sealevel;temperature;humidity
73316;BME280;61545;53.726;-0.444;2024-02-14T00:04:26;1002.8;;;6.9;100.0
73316;BME280;61545;53.726;-0.444;2024-02-14T00:09:26;1002.8;;;6.9;100.0
73316;BME280;61545;53.726;-0.444;2024-02-14T00:14:26;1002.7;;;6.9;100.0
73316;BME280;61545;53.726;-0.444;2024-02-14T00:19:26;1002.8;;;6.9;100.0
73316;BME280;61545;53.726;-0.444;2024-02-14T00:24:26;1002.8;;;6.9;100.0
73316;BME280;61545;53.726;-0.444;2024-02-14T00:29:27;1002.7;;;7.0;100.0
73316;BME280;61545;53.726;-0.444;2024-02-14T00:34:26;1002.6;;;7.0;100.0
73316;BME280;61545;53.726;-0.444;2024-02-14T00:39:26;1002.6;;;unknown;100.0
73316;BME280;61545;53.726;-0.444;2024-02-14T00:44:26;1002.8;;;7.0;100.0
73316;BME280;61545;53.726;-0.444;2024-02-14T00:49:26;1002.8;;;7.2;100.0
73316;BME280;61545;53.726;-0.444;2024-02-14T00:54:26;1002.9;;;7.2;100.0
73316;BME280;61545;53.726;-0.444;2024-02-14T00:59:26;1002.8;;;7.2;100.0
73316;BME280;61545;53.726;-0.444;2024-02-14T01:04:26;1002.8;;;7.2;100.0
73316;BME280;61545;53.726;-0.444;2024-02-14T01:09:26;1002.8;;;7.1;100.0
73316;BME280;61545;53.726;-0.444;2024-02-14T01:14:26;1002.8;;;7.1;100.0
73316;BME280;61545;53.726;-0.444;2024-02-14T01:19:26;1002.9;;;7.2;100.0
73316;BME280;61545;53.726;-0.444;2024-02-14T01:24:26;1002.9;;;7.2;100.0
73316;BME280;61545;53.726;-0.444;2024-02-14T01:29:26;1002.8;;;7.1;100.0
73316;BME280;61545;53.726;-0.444;2024-02-14T01:34:26;1002.8;;;7.0;100.0
73316;BME280;61545;53.726;-0.444;2024-02-14T01:39:26;1002.8;;;7.1;100.0
73316;BME280;61545;53.726;-0.444;2024-02-14T01:44:26;1003.0;;;7.1;100.0
73316;BME280;61545;53.726;-0.444;2024-02-14T01:49:26;1002.9;;;7.1;100.0
73316;BME280;61545;53.726;-0.444;2024-02-14T01:54:26;1003.0;;;7.1;100.0
73316;BME280;61545;53.726;-0.444;2024-02-14T01:59:26;1003.0;;;7.1;100.0
73316;BME280;61545;53.726;-0.444;2024-02-14T02:04:26;1003.0;;;7.2;100.0
73316;BME280;61545;53.726;-0.444;2024-02-14T02:09:26;1003.0;;;unknown;100.0
73316;BME280;61545;53.726;-0.444;2024-02-14T02:14:26;1002.9;;;7.2;100.0
73316;BME280;61545;53.726;-0.444;2024-02-14T02:19:26;1002.9;;;7.2;100.0
73316;BME280;61545;53.726;-0.444;2024-02-14T02:24:26;1002.9;;;7.3;100.0
73316;BME280;61545;53.726;-0.444;2024-02-14T02:29:26;1003.0;;;7.3;100.0
73316;BME280;61545;53.726;-0.444;2024-02-14T02:34:26;1002.9;;;7.2;100.0
73316;BME280;61545;53.726;-0.444;2024-02-14T02:39:26;1002.8;;;7.3;100.0
73316;BME280;61545;53.726;-0.444;2024-02-14T02:44:26;1002.8;;;7.3;100.0
73316;BME280;61545;53.726;-0.444;2024-02-14T02:49:26;1002.8;;;7.2;100.0
73316;BME280;61545;53.726;-0.444;2024-02-14T02:54:26;1002.8;;;7.3;100.0
73316;BME280;61545;53.726;-0.444;2024-02-14T02:59:26;1002.7;;;7.3;100.0
73316;BME280;61545;53.726;-0.444;2024-02-14T03:04:26;1002.8;;;7.3;100.0
73316;BME280;61545;53.726;-0.444;2024-02-14T03:09:26;1002.8;;;7.4;100.0
73316;BME280;61545;53.726;-0.444;2024-02-14T03:14:28;1002.6;;;7.4;100.0
73316;BME280;61545;53.726;-0.444;2024-02-14T03:19:26;1002.6;;;7.4;100.0
73316;BME280;61545;53.726;-0.444;2024-02-14T03:24:26;1002.5;;;7.3;100.0
73316;BME280;61545;53.726;-0.444;2024-02-14T03:29:26;1002.6;;;7.3;100.0
73316;BME280;61545;53.726;-0.444;2024-02-14T03:34:26;1002.6;;;7.3;100.0
73316;BME280;61545;53.726;-0.444;2024-02-14T03:39:26;1002.6;;;7.3;100.0
73316;BME280;61545;53.726;-0.444;2024-02-14T03:44:26;1002.6;;;7.3;100.0
73316;BME280;61545;53.726;-0.444;2024-02-14T03:49:26;1002.6;;;7.3;100.0
73316;BME280;61545;53.726;-0.444;2024-02-14T03:54:26;1002.6;;;7.3;100.0
73316;BME280;61545;53.726;-0.444;2024-02-14T03:59:26;1002.6;;;7.3;100.0
73316;BME280;61545;53.726;-0.444;2024-02-14T04:04:26;1002.5;;;7.3;100.0
73316;BME280;61545;53.726;-0.444;2024-02-14T04:09:26;1002.5;;;7.3;100.0
73316;BME280;61545;53.726;-0.444;2024-02-14T04:14:26;1002.4;;;7.3;100.0
73316;BME280;61545;53.726;-0.444;2024-02-14T04:19:26;1002.5;;;7.3;100.0
73316;BME280;61545;53.726;-0.444;2024-02-14T04:24:26;1002.5;;;7.3;100.0
73316;BME280;61545;53.726;-0.444;2024-02-14T04:29:26;1002.5;;;7.3;100.0
73316;BME280;61545;53.726;-0.444;2024-02-14T04:34:26;1002.5;;;7.3;100.0
73316;BME280;61545;53.726;-0.444;2024-02-14T04:39:26;1002.5;;;7.3;100.0
73316;BME280;61545;53.726;-0.444;2024-02-14T04:44:26;1002.5;;;7.3;100.0
73316;BME280;61545;53.726;-0.444;2024-02-14T04:49:26;1002.5;;;7.3;100.0
73316;BME280;61545;53.726;-0.444;2024-02-14T04:54:26;1002.5;;;7.3;100.0
73316;BME280;61545;53.726;-0.444;2024-02-14T04:59:26;1002.4;;;7.4;100.0
73316;BME280;61545;53.726;-0.444;2024-02-14T05:04:26;1002.5;;;7.4;100.0
73316;BME280;61545;53.726;-0.444;2024-02-14T05:09:27;1002.5;;;7.4;100.0
73316;BME280;61545;53.726;-0.444;2024-02-14T05:14:26;1002.4;;;7.4;100.0
73316;BME280;61545;53.726;-0.444;2024-02-14T05:19:26;1002.3;;;7.4;100.0
73316;BME280;61545;53.726;-0.444;2024-02-14T05:24:26;1002.3;;;7.4;100.0
73316;BME280;61545;53.726;-0.444;2024-02-14T05:29:26;1002.3;;;7.4;100.0
73316;BME280;61545;53.726;-0.444;2024-02-14T05:34:26;1002.3;;;7.5;100.0
73316;BME280;61545;53.726;-0.444;2024-02-14T05:39:26;1002.3;;;7.5;100.0
73316;BME280;61545;53.726;-0.444;2024-02-14T05:44:26;1002.3;;;7.4;100.0
73316;BME280;61545;53.726;-0.444;2024-02-14T05:49:26;1002.3;;;7.4;100.0
73316;BME280;61545;53.726;-0.444;2024-02-14T05:54:26;1002.2;;;7.5;100.0
73316;BME280;61545;53.726;-0.444;2024-02-14T05:59:26;1002.2;;;7.5;100.0
73316;BME280;61545;53.726;-0.444;2024-02-14T06:04:26;1002.2;;;7.5;100.0
73316;BME280;61545;53.726;-0.444;2024-02-14T06:09:26;1002.2;;;7.5;100.0
73316;BME280;61545;53.726;-0.444;2024-02-14T06:14:26;1002.3;;;7.7;100.0
73316;BME280;61545;53.726;-0.444;2024-02-14T06:19:26;1002.2;;;7.8;100.0
73316;BME280;61545;53.726;-0.444;2024-02-14T06:24:26;1002.2;;;7.9;100.0
73316;BME280;61545;53.726;-0.444;2024-02-14T06:29:26;1002.3;;;8.0;100.0
73316;BME280;61545;53.726;-0.444;2024-02-14T06:34:26;1002.2;;;8.1;100.0
73316;BME280;61545;53.726;-0.444;2024-02-14T06:39:26;1002.2;;;8.2;100.0
73316;BME280;61545;53.726;-0.444;2024-02-14T06:44:26;1002.2;;;8.2;100.0
73316;BME280;61545;53.726;-0.444;2024-02-14T06:49:26;1002.2;;;8.2;100.0
73316;BME280;61545;53.726;-0.444;2024-02-14T06:54:26;1002.3;;;8.2;100.0
73316;BME280;61545;53.726;-0.444;2024-02-14T06:59:26;1002.3;;;8.4;100.0
73316;BME280;61545;53.726;-0.444;2024-02-14T07:04:26;1002.3;;;8.4;100.0
73316;BME280;61545;53.726;-0.444;2024-02-14T07:09:26;1002.4;;;8.5;100.0
73316;BME280;61545;53.726;-0.444;2024-02-14T07:14:26;1002.4;;;unknown;100.0
73316;BME280;61545;53.726;-0.444;2024-02-14T07:19:26;1002.4;;;8.5;100.0
73316;BME280;61545;53.726;-0.444;2024-02-14T07:24:26;1002.4;;;8.6;100.0
73316;BME280;61545;53.726;-0.444;2024-02-14T07:29:26;1002.4;;;8.6;100.0
73316;BME280;61545;53.726;-0.444;2024-02-14T07:34:26;1002.5;;;8.7;100.0
73316;BME280;61545;53.726;-0.444;2024-02-14T07:39:26;1002.5;;;8.7;100.0
73316;BME280;61545;53.726;-0.444;2024-02-14T07:44:26;1002.4;;;8.7;100.0
73316;BME280;61545;53.726;-0.444;2024-02-14T07:49:26;1002.4;;;8.7;100.0
73316;BME280;61545;53.726;-0.444;2024-02-14T07:54:26;1002.4;;;unknown;100.0
73316;BME280;61545;53.726;-0.444;2024-02-14T07:59:26;1002.4;;;8.9;100.0
73316;BME280;61545;53.726;-0.444;2024-02-14T08:04:26;1002.4;;;8.9;100.0
73316;BME280;61545;53.726;-0.444;2024-02-14T08:09:26;1002.5;;;8.9;100.0
73316;BME280;61545;53.726;-0.444;2024-02-14T08:14:26;1002.5;;;9.0;100.0
73316;BME280;61545;53.726;-0.444;2024-02-14T08:19:26;1002.5;;;9.0;100.0
73316;BME280;61545;53.726;-0.444;2024-02-14T08:24:26;1002.4;;;9.0;100.0
73316;BME280;61545;53.726;-0.444;2024-02-14T08:29:26;1002.5;;;9.0;100.0
73316;BME280;61545;53.726;-0.444;2024-02-14T08:34:26;1002.5;;;unknown;100.0
73316;BME280;61545;53.726;-0.444;2024-02-14T08:39:26;1002.6;;;9.2;100.0
73316;BME280;61545;53.726;-0.444;2024-02-14T08:44:26;1002.6;;;9.3;100.0
73316;BME280;61545;53.726;-0.444;2024-02-14T08:49:26;1002.6;;;9.4;100.0
73316;BME280;61545;53.726;-0.444;2024-02-14T08:54:26;1002.7;;;9.4;100.0
73316;BME280;61545;53.726;-0.444;2024-02-14T08:59:26;1002.8;;;9.4;100.0
73316;BME280;61545;53.726;-0.444;2024-02-14T09:04:26;1002.8;;;9.5;100.0
73316;BME280;61545;53.726;-0.444;2024-02-14T09:09:26;1002.8;;;9.6;100.0
73316;BME280;61545;53.726;-0.444;2024-02-14T09:14:26;1002.9;;;9.7;100.0
73316;BME280;61545;53.726;-0.444;2024-02-14T09:19:26;1002.8;;;9.7;100.0
73316;BME280;61545;53.726;-0.444;2024-02-14T09:24:26;1002.9;;;9.9;100.0
73316;BME280;61545;53.726;-0.444;2024-02-14T09:29:26;1003.0;;;9.9;100.0
73316;BME280;61545;53.726;-0.444;2024-02-14T09:34:26;1003.2;;;10.0;100.0
73316;BME280;61545;53.726;-0.444;2024-02-14T09:39:26;1003.1;;;10.0;100.0
73316;BME280;61545;53.726;-0.444;2024-02-14T09:44:27;1003.2;;;9.9;100.0
73316;BME280;61545;53.726;-0.444;2024-02-14T09:49:26;1003.3;;;9.9;100.0
73316;BME280;61545;53.726;-0.444;2024-02-14T09:54:26;1003.3;;;10.0;100.0
73316;BME280;61545;53.726;-0.444;2024-02-14T09:59:26;1003.3;;;10.0;100.0
73316;BME280;61545;53.726;-0.444;2024-02-14T10:04:26;1003.4;;;10.2;100.0
73316;BME280;61545;53.726;-0.444;2024-02-14T10:09:26;1003.3;;;10.2;100.0
73316;BME280;61545;53.726;-0.444;2024-02-14T10:14:26;1003.4;;;unknown;100.0
73316;BME280;61545;53.726;-0.444;2024-02-14T10:19:26;1003.4;;;10.4;100.0
73316;BME280;61545;53.726;-0.444;2024-02-14T10:24:26;1003.5;;;unknown;100.0
73316;BME280;61545;53.726;-0.444;2024-02-14T10:29:26;1003.4;;;11.4;100.0
73316;BME280;61545;53.726;-0.444;2024-02-14T10:34:26;1003.5;;;11.7;100.0
73316;BME280;61545;53.726;-0.444;2024-02-14T10:39:26;1003.5;;;unknown;100.0
73316;BME280;61545;53.726;-0.444;2024-02-14T10:44:26;1003.5;;;11.5;100.0
73316;BME280;61545;53.726;-0.444;2024-02-14T10:49:26;1003.6;;;11.5;100.0
73316;BME280;61545;53.726;-0.444;2024-02-14T10:54:26;1003.7;;;11.3;100.0
73316;BME280;61545;53.726;-0.444;2024-02-14T10:59:26;1003.6;;;11.2;100.0
73316;BME280;61545;53.726;-0.444;2024-02-14T11:04:26;1003.5;;;unknown;100.0
73316;BME280;61545;53.726;-0.444;2024-02-14T11:09:31;1003.5;;;10.9;100.0
73316;BME280;61545;53.726;-0.444;2024-02-14T11:14:29;1003.5;;;10.9;100.0
73316;BME280;61545;53.726;-0.444;2024-02-14T11:19:30;1003.4;;;unknown;100.0
73316;BME280;61545;53.726;-0.444;2024-02-14T11:24:27;1003.4;;;10.9;100.0
73316;BME280;61545;53.726;-0.444;2024-02-14T11:29:28;1003.5;;;unknown;100.0
73316;BME280;61545;53.726;-0.444;2024-02-14T11:34:26;1003.4;;;10.9;100.0
73316;BME280;61545;53.726;-0.444;2024-02-14T11:39:26;1003.3;;;11.0;100.0
73316;BME280;61545;53.726;-0.444;2024-02-14T11:44:26;1003.2;;;11.1;100.0
73316;BME280;61545;53.726;-0.444;2024-02-14T11:49:26;1003.0;;;11.2;100.0
73316;BME280;61545;53.726;-0.444;2024-02-14T11:54:26;1003.0;;;11.1;100.0
73316;BME280;61545;53.726;-0.444;2024-02-14T11:59:26;1002.8;;;11.3;100.0
73316;BME280;61545;53.726;-0.444;2024-02-14T12:04:26;1002.7;;;11.4;100.0
73316;BME280;61545;53.726;-0.444;2024-02-14T12:09:26;1002.6;;;11.5;100.0
73316;BME280;61545;53.726;-0.444;2024-02-14T12:14:26;1002.6;;;11.5;100.0
73316;BME280;61545;53.726;-0.444;2024-02-14T12:19:26;1002.6;;;11.4;100.0
73316;BME280;61545;53.726;-0.444;2024-02-14T12:24:27;1002.5;;;unknown;100.0
73316;BME280;61545;53.726;-0.444;2024-02-14T12:29:26;1002.4;;;11.4;100.0
73316;BME280;61545;53.726;-0.444;2024-02-14T12:34:27;1002.4;;;11.4;100.0
73316;BME280;61545;53.726;-0.444;2024-02-14T12:39:26;1002.4;;;unknown;100.0
73316;BME280;61545;53.726;-0.444;2024-02-14T12:44:26;1002.5;;;unknown;100.0
73316;BME280;61545;53.726;-0.444;2024-02-14T12:49:26;1002.4;;;11.3;100.0
73316;BME280;61545;53.726;-0.444;2024-02-14T12:54:26;1002.4;;;unknown;100.0
73316;BME280;61545;53.726;-0.444;2024-02-14T12:59:26;1002.5;;;11.4;100.0
73316;BME280;61545;53.726;-0.444;2024-02-14T13:04:26;1002.5;;;11.4;100.0
73316;BME280;61545;53.726;-0.444;2024-02-14T13:09:26;1002.5;;;11.4;100.0
73316;BME280;61545;53.726;-0.444;2024-02-14T13:14:26;1002.5;;;11.4;100.0
73316;BME280;61545;53.726;-0.444;2024-02-14T13:19:26;1002.4;;;11.5;100.0
73316;BME280;61545;53.726;-0.444;2024-02-14T13:24:26;1002.4;;;11.8;100.0
73316;BME280;61545;53.726;-0.444;2024-02-14T13:29:26;1002.4;;;unknown;100.0
73316;BME280;61545;53.726;-0.444;2024-02-14T13:34:26;1002.4;;;11.6;100.0
73316;BME280;61545;53.726;-0.444;2024-02-14T13:39:26;1002.3;;;11.7;100.0
73316;BME280;61545;53.726;-0.444;2024-02-14T13:44:26;1002.2;;;11.8;100.0
73316;BME280;61545;53.726;-0.444;2024-02-14T13:49:26;1002.2;;;11.9;100.0
73316;BME280;61545;53.726;-0.444;2024-02-14T13:54:26;1002.3;;;11.8;100.0
73316;BME280;61545;53.726;-0.444;2024-02-14T13:59:26;1002.4;;;unknown;100.0
73316;BME280;61545;53.726;-0.444;2024-02-14T14:04:26;1002.3;;;unknown;100.0
73316;BME280;61545;53.726;-0.444;2024-02-14T14:09:26;1002.4;;;11.6;100.0
73316;BME280;61545;53.726;-0.444;2024-02-14T14:14:26;1002.4;;;11.6;100.0
73316;BME280;61545;53.726;-0.444;2024-02-14T14:19:26;1002.4;;;11.7;100.0
73316;BME280;61545;53.726;-0.444;2024-02-14T14:24:26;1002.4;;;unknown;100.0
73316;BME280;61545;53.726;-0.444;2024-02-14T14:29:26;1002.4;;;unknown;100.0
73316;BME280;61545;53.726;-0.444;2024-02-14T14:34:26;1002.3;;;unknown;100.0
73316;BME280;61545;53.726;-0.444;2024-02-14T14:39:26;1002.4;;;unknown;100.0
73316;BME280;61545;53.726;-0.444;2024-02-14T14:44:26;1002.4;;;11.7;100.0
73316;BME280;61545;53.726;-0.444;2024-02-14T14:49:26;1002.4;;;11.8;100.0
73316;BME280;61545;53.726;-0.444;2024-02-14T14:54:26;1002.6;;;unknown;100.0
73316;BME280;61545;53.726;-0.444;2024-02-14T14:59:26;1002.6;;;11.9;100.0
73316;BME280;61545;53.726;-0.444;2024-02-14T15:04:26;1002.6;;;11.8;100.0
73316;BME280;61545;53.726;-0.444;2024-02-14T15:09:26;1002.7;;;11.9;100.0
73316;BME280;61545;53.726;-0.444;2024-02-14T15:14:26;1002.7;;;unknown;100.0
73316;BME280;61545;53.726;-0.444;2024-02-14T15:19:26;1002.8;;;11.9;100.0
73316;BME280;61545;53.726;-0.444;2024-02-14T15:24:26;1002.9;;;11.8;100.0
73316;BME280;61545;53.726;-0.444;2024-02-14T15:29:26;1003.0;;;unknown;100.0
73316;BME280;61545;53.726;-0.444;2024-02-14T15:34:26;1003.0;;;11.8;100.0
73316;BME280;61545;53.726;-0.444;2024-02-14T15:39:26;1003.1;;;11.8;100.0
73316;BME280;61545;53.726;-0.444;2024-02-14T15:44:26;1003.2;;;11.7;100.0
73316;BME280;61545;53.726;-0.444;2024-02-14T15:49:27;1003.2;;;unknown;100.0
73316;BME280;61545;53.726;-0.444;2024-02-14T15:54:26;1003.2;;;11.7;100.0
73316;BME280;61545;53.726;-0.444;2024-02-14T15:59:26;1003.3;;;11.6;100.0
73316;BME280;61545;53.726;-0.444;2024-02-14T16:04:27;1003.4;;;11.5;100.0
73316;BME280;61545;53.726;-0.444;2024-02-14T16:09:26;1003.4;;;11.5;100.0
73316;BME280;61545;53.726;-0.444;2024-02-14T16:14:26;1003.4;;;11.5;100.0
73316;BME280;61545;53.726;-0.444;2024-02-14T16:19:26;1003.4;;;11.5;100.0
73316;BME280;61545;53.726;-0.444;2024-02-14T16:24:26;1003.4;;;unknown;100.0
73316;BME280;61545;53.726;-0.444;2024-02-14T16:29:26;1003.5;;;unknown;100.0
73316;BME280;61545;53.726;-0.444;2024-02-14T16:34:26;1003.5;;;11.5;100.0
73316;BME280;61545;53.726;-0.444;2024-02-14T16:39:26;1003.6;;;unknown;100.0
73316;BME280;61545;53.726;-0.444;2024-02-14T16:44:26;1003.6;;;11.5;100.0
73316;BME280;61545;53.726;-0.444;2024-02-14T16:49:26;1003.7;;;11.4;100.0
73316;BME280;61545;53.726;-0.444;2024-02-14T16:54:26;1003.7;;;11.4;100.0
73316;BME280;61545;53.726;-0.444;2024-02-14T16:59:26;1003.7;;;11.4;100.0
73316;BME280;61545;53.726;-0.444;2024-02-14T17:04:26;1003.8;;;unknown;100.0
73316;BME280;61545;53.726;-0.444;2024-02-14T17:09:26;1003.7;;;11.4;100.0
73316;BME280;61545;53.726;-0.444;2024-02-14T17:14:26;1003.8;;;unknown;100.0
73316;BME280;61545;53.726;-0.444;2024-02-14T17:19:26;1003.8;;;11.3;100.0
73316;BME280;61545;53.726;-0.444;2024-02-14T17:24:26;1003.8;;;unknown;100.0
73316;BME280;61545;53.726;-0.444;2024-02-14T17:29:26;1004.0;;;11.2;100.0
73316;BME280;61545;53.726;-0.444;2024-02-14T17:34:26;1004.1;;;11.2;100.0
73316;BME280;61545;53.726;-0.444;2024-02-14T17:39:26;1004.2;;;unknown;100.0
73316;BME280;61545;53.726;-0.444;2024-02-14T17:44:26;1004.2;;;11.2;100.0
73316;BME280;61545;53.726;-0.444;2024-02-14T17:49:26;1004.2;;;unknown;100.0
73316;BME280;61545;53.726;-0.444;2024-02-14T17:54:26;1004.3;;;11.2;100.0
73316;BME280;61545;53.726;-0.444;2024-02-14T17:59:26;1004.4;;;11.2;100.0
73316;BME280;61545;53.726;-0.444;2024-02-14T18:04:26;1004.5;;;unknown;100.0
73316;BME280;61545;53.726;-0.444;2024-02-14T18:09:26;1004.4;;;unknown;100.0
73316;BME280;61545;53.726;-0.444;2024-02-14T18:14:26;1004.5;;;11.2;100.0
73316;BME280;61545;53.726;-0.444;2024-02-14T18:19:26;1004.6;;;11.2;100.0
73316;BME280;61545;53.726;-0.444;2024-02-14T18:24:26;1004.6;;;11.2;100.0
73316;BME280;61545;53.726;-0.444;2024-02-14T18:29:26;1004.6;;;11.2;100.0
73316;BME280;61545;53.726;-0.444;2024-02-14T18:34:26;1004.7;;;11.2;100.0
73316;BME280;61545;53.726;-0.444;2024-02-14T18:39:26;1004.6;;;unknown;100.0
73316;BME280;61545;53.726;-0.444;2024-02-14T18:44:26;1004.6;;;11.2;100.0
73316;BME280;61545;53.726;-0.444;2024-02-14T18:49:26;1004.6;;;unknown;100.0
73316;BME280;61545;53.726;-0.444;2024-02-14T18:54:26;1004.6;;;11.1;100.0
73316;BME280;61545;53.726;-0.444;2024-02-14T18:59:26;1004.7;;;11.1;100.0
73316;BME280;61545;53.726;-0.444;2024-02-14T19:04:26;1004.7;;;11.1;100.0
73316;BME280;61545;53.726;-0.444;2024-02-14T19:09:26;1004.7;;;11.0;100.0
73316;BME280;61545;53.726;-0.444;2024-02-14T19:14:26;1004.7;;;11.0;100.0
73316;BME280;61545;53.726;-0.444;2024-02-14T19:19:26;1004.7;;;11.0;100.0
73316;BME280;61545;53.726;-0.444;2024-02-14T19:24:26;1004.7;;;11.0;100.0
73316;BME280;61545;53.726;-0.444;2024-02-14T19:29:26;1004.7;;;11.1;100.0
73316;BME280;61545;53.726;-0.444;2024-02-14T19:34:26;1004.8;;;11.0;100.0
73316;BME280;61545;53.726;-0.444;2024-02-14T19:39:26;1004.8;;;11.0;100.0
73316;BME280;61545;53.726;-0.444;2024-02-14T19:44:26;1004.8;;;11.0;100.0
73316;BME280;61545;53.726;-0.444;2024-02-14T19:49:26;1004.8;;;10.9;100.0
73316;BME280;61545;53.726;-0.444;2024-02-14T19:54:26;1004.8;;;11.0;100.0
73316;BME280;61545;53.726;-0.444;2024-02-14T19:59:26;1004.9;;;11.0;100.0
73316;BME280;61545;53.726;-0.444;2024-02-14T20:04:26;1004.9;;;11.0;100.0
73316;BME280;61545;53.726;-0.444;2024-02-14T20:09:26;1004.9;;;unknown;100.0
73316;BME280;61545;53.726;-0.444;2024-02-14T20:14:26;1004.9;;;unknown;100.0
73316;BME280;61545;53.726;-0.444;2024-02-14T20:19:26;1004.8;;;unknown;100.0
73316;BME280;61545;53.726;-0.444;2024-02-14T20:24:26;1004.9;;;11.0;100.0
73316;BME280;61545;53.726;-0.444;2024-02-14T20:29:26;1004.9;;;11.1;100.0
73316;BME280;61545;53.726;-0.444;2024-02-14T20:34:26;1004.9;;;11.1;100.0
73316;BME280;61545;53.726;-0.444;2024-02-14T20:39:26;1004.9;;;11.0;100.0
73316;BME280;61545;53.726;-0.444;2024-02-14T20:44:26;1004.9;;;unknown;100.0
73316;BME280;61545;53.726;-0.444;2024-02-14T20:49:26;1004.9;;;11.0;100.0
73316;BME280;61545;53.726;-0.444;2024-02-14T20:54:26;1004.9;;;unknown;100.0
73316;BME280;61545;53.726;-0.444;2024-02-14T20:59:26;1004.9;;;11.0;100.0
73316;BME280;61545;53.726;-0.444;2024-02-14T21:04:26;1004.9;;;unknown;100.0
73316;BME280;61545;53.726;-0.444;2024-02-14T21:09:26;1004.9;;;10.9;100.0
73316;BME280;61545;53.726;-0.444;2024-02-14T21:14:26;1004.9;;;10.9;100.0
73316;BME280;61545;53.726;-0.444;2024-02-14T21:19:26;1005.0;;;unknown;100.0
73316;BME280;61545;53.726;-0.444;2024-02-14T21:24:26;1005.0;;;10.9;100.0
73316;BME280;61545;53.726;-0.444;2024-02-14T21:29:26;1005.0;;;unknown;100.0
73316;BME280;61545;53.726;-0.444;2024-02-14T21:34:26;1004.9;;;11.0;100.0
73316;BME280;61545;53.726;-0.444;2024-02-14T21:39:26;1004.8;;;11.0;100.0
73316;BME280;61545;53.726;-0.444;2024-02-14T21:44:26;1004.8;;;unknown;100.0
73316;BME280;61545;53.726;-0.444;2024-02-14T21:49:26;1004.8;;;11.0;100.0
73316;BME280;61545;53.726;-0.444;2024-02-14T21:54:26;1004.7;;;11.0;100.0
73316;BME280;61545;53.726;-0.444;2024-02-14T21:59:26;1004.8;;;11.1;100.0
73316;BME280;61545;53.726;-0.444;2024-02-14T22:04:26;1004.8;;;unknown;100.0
73316;BME280;61545;53.726;-0.444;2024-02-14T22:09:26;1004.7;;;11.1;100.0
73316;BME280;61545;53.726;-0.444;2024-02-14T22:14:26;1004.7;;;11.1;100.0
73316;BME280;61545;53.726;-0.444;2024-02-14T22:19:27;1004.7;;;unknown;100.0
73316;BME280;61545;53.726;-0.444;2024-02-14T22:24:26;1004.6;;;11.1;100.0
73316;BME280;61545;53.726;-0.444;2024-02-14T22:29:26;1004.7;;;11.1;100.0
73316;BME280;61545;53.726;-0.444;2024-02-14T22:34:26;1004.6;;;unknown;100.0
73316;BME280;61545;53.726;-0.444;2024-02-14T22:39:26;1004.6;;;unknown;100.0
73316;BME280;61545;53.726;-0.444;2024-02-14T22:44:26;1004.5;;;unknown;100.0
73316;BME280;61545;53.726;-0.444;2024-02-14T22:49:26;1004.5;;;11.1;100.0
73316;BME280;61545;53.726;-0.444;2024-02-14T22:54:26;1004.6;;;11.0;100.0
73316;BME280;61545;53.726;-0.444;2024-02-14T22:59:26;1004.5;;;11.0;100.0
73316;BME280;61545;53.726;-0.444;2024-02-14T23:04:26;1004.7;;;11.0;100.0
73316;BME280;61545;53.726;-0.444;2024-02-14T23:09:26;1004.7;;;unknown;100.0
73316;BME280;61545;53.726;-0.444;2024-02-14T23:14:26;1004.6;;;unknown;100.0
73316;BME280;61545;53.726;-0.444;2024-02-14T23:19:26;1004.6;;;11.0;100.0
73316;BME280;61545;53.726;-0.444;2024-02-14T23:24:26;1004.4;;;unknown;100.0
73316;BME280;61545;53.726;-0.444;2024-02-14T23:29:26;1004.5;;;11.0;100.0
73316;BME280;61545;53.726;-0.444;2024-02-14T23:34:26;1004.6;;;11.0;100.0
73316;BME280;61545;53.726;-0.444;2024-02-14T23:39:26;1004.6;;;11.0;100.0
73316;BME280;61545;53.726;-0.444;2024-02-14T23:44:26;1004.5;;;unknown;100.0
73316;BME280;61545;53.726;-0.444;2024-02-14T23:49:26;1004.5;;;11.0;100.0
73316;BME280;61545;53.726;-0.444;2024-02-14T23:54:26;1004.5;;;unknown;100.0
73316;BME280;61545;53.726;-0.444;2024-02-14T23:59:26;1004.5;;;10.9;100.0
